sensor_id;sensor_type;location;lat;lon;timestamp;pressure;altitude;pressure_sealevel;temperature;humidity
43934;BME280;59081;42.706;23.306;2022-11-20T00:01:07;94479.88;;;14.16;75.34
43934;BME280;59081;42.706;23.306;2022-11-20T00:03:36;94448.41;;;14.04;74.79
43934;BME280;59081;42.706;23.306;2022-11-20T00:06:09;94459.31;;;14.22;74.34
43934;BME280;59081;42.706;23.306;2022-11-20T00:08:38;94492.38;;;14.26;75.65
43934;BME280;59081;42.706;23.306;2022-11-20T00:11:18;94491.44;;;14.44;73.26
43934;BME280;59081;42.706;23.306;2022-11-20T00:13:50;94422.50;;;14.66;69.34
43934;BME280;59081;42.706;23.306;2022-11-20T00:16:22;94447.09;;;14.93;71.34
43934;BME280;59081;42.706;23.306;2022-11-20T00:18:48;94420.34;;;15.31;64.68
43934;BME280;59081;42.706;23.306;2022-11-20T00:21:24;94514.09;;;16.28;63.11
43934;BME280;59081;42.706;23.306;2022-11-20T00:23:52;94479.50;;;16.04;63.38
43934;BME280;59081;42.706;23.306;2022-11-20T00:26:19;94478.63;;;15.92;64.67
43934;BME280;59081;42.706;23.306;2022-11-20T00:28:53;94538.16;;;16.11;65.28
43934;BME280;59081;42.706;23.306;2022-11-20T00:31:25;94440.94;;;15.45;65.48
43934;BME280;59081;42.706;23.306;2022-11-20T00:33:53;94448.44;;;15.39;65.06
43934;BME280;59081;42.706;23.306;2022-11-20T00:36:24;94430.28;;;15.38;64.79
43934;BME280;59081;42.706;23.306;2022-11-20T00:38:57;94466.66;;;16.06;60.36
43934;BME280;59081;42.706;23.306;2022-11-20T00:41:23;94441.31;;;16.87;54.99
43934;BME280;59081;42.706;23.306;2022-11-20T00:43:51;94501.66;;;17.55;54.53
43934;BME280;59081;42.706;23.306;2022-11-20T00:46:20;94445.50;;;17.09;54.86
43934;BME280;59081;42.706;23.306;2022-11-20T00:48:46;94442.22;;;17.16;53.57
43934;BME280;59081;42.706;23.306;2022-11-20T00:53:57;94502.09;;;17.91;53.50
43934;BME280;59081;42.706;23.306;2022-11-20T00:56:27;94416.34;;;17.58;52.22
43934;BME280;59081;42.706;23.306;2022-11-20T00:59:01;94461.78;;;17.86;52.38
43934;BME280;59081;42.706;23.306;2022-11-20T01:01:27;94459.28;;;17.94;51.96
43934;BME280;59081;42.706;23.306;2022-11-20T01:03:59;94450.44;;;17.95;52.38
43934;BME280;59081;42.706;23.306;2022-11-20T01:06:30;94458.28;;;17.97;52.27
43934;BME280;59081;42.706;23.306;2022-11-20T01:08:58;94492.28;;;18.23;52.38
43934;BME280;59081;42.706;23.306;2022-11-20T01:11:29;94456.00;;;17.95;52.37
43934;BME280;59081;42.706;23.306;2022-11-20T01:14:00;94433.44;;;17.93;52.38
43934;BME280;59081;42.706;23.306;2022-11-20T01:16:30;94479.84;;;18.19;52.35
43934;BME280;59081;42.706;23.306;2022-11-20T01:18:58;94434.22;;;18.05;51.51
43934;BME280;59081;42.706;23.306;2022-11-20T01:21:35;94492.06;;;18.55;51.34
43934;BME280;59081;42.706;23.306;2022-11-20T01:24:02;94406.09;;;17.92;51.46
43934;BME280;59081;42.706;23.306;2022-11-20T01:26:33;94405.56;;;17.77;51.20
43934;BME280;59081;42.706;23.306;2022-11-20T01:29:10;94444.94;;;18.34;50.30
43934;BME280;59081;42.706;23.306;2022-11-20T01:31:40;94416.00;;;18.21;49.96
43934;BME280;59081;42.706;23.306;2022-11-20T01:34:11;94491.88;;;18.64;50.12
43934;BME280;59081;42.706;23.306;2022-11-20T01:36:41;94438.09;;;18.35;50.14
43934;BME280;59081;42.706;23.306;2022-11-20T01:41:37;94485.22;;;18.56;50.79
43934;BME280;59081;42.706;23.306;2022-11-20T01:44:41;94402.81;;;18.04;50.49
43934;BME280;59081;42.706;23.306;2022-11-20T01:47:14;94356.44;;;17.79;50.78
43934;BME280;59081;42.706;23.306;2022-11-20T01:50:03;94395.22;;;17.99;50.18
43934;BME280;59081;42.706;23.306;2022-11-20T01:52:34;94372.38;;;17.84;50.26
43934;BME280;59081;42.706;23.306;2022-11-20T01:55:13;94408.13;;;17.97;50.29
43934;BME280;59081;42.706;23.306;2022-11-20T01:57:44;94417.78;;;18.13;49.57
43934;BME280;59081;42.706;23.306;2022-11-20T02:00:13;94366.31;;;17.80;49.87
43934;BME280;59081;42.706;23.306;2022-11-20T02:02:41;94492.06;;;18.55;49.72
43934;BME280;59081;42.706;23.306;2022-11-20T02:05:23;94485.50;;;18.52;50.15
43934;BME280;59081;42.706;23.306;2022-11-20T02:07:50;94499.69;;;18.43;50.60
43934;BME280;59081;42.706;23.306;2022-11-20T02:10:16;94426.38;;;18.09;50.19
43934;BME280;59081;42.706;23.306;2022-11-20T02:12:42;94390.13;;;17.92;49.42
43934;BME280;59081;42.706;23.306;2022-11-20T02:15:29;94451.50;;;18.31;49.88
43934;BME280;59081;42.706;23.306;2022-11-20T02:17:55;94461.63;;;18.18;50.46
43934;BME280;59081;42.706;23.306;2022-11-20T02:20:20;94390.38;;;17.78;50.69
43934;BME280;59081;42.706;23.306;2022-11-20T02:23:12;94457.56;;;18.24;50.74
43934;BME280;59081;42.706;23.306;2022-11-20T02:25:42;94408.59;;;17.79;51.50
43934;BME280;59081;42.706;23.306;2022-11-20T02:28:09;94446.09;;;17.89;51.98
43934;BME280;59081;42.706;23.306;2022-11-20T02:30:40;94427.31;;;17.72;51.97
43934;BME280;59081;42.706;23.306;2022-11-20T02:33:08;94420.38;;;17.46;51.66
43934;BME280;59081;42.706;23.306;2022-11-20T02:35:40;94473.53;;;18.18;51.58
43934;BME280;59081;42.706;23.306;2022-11-20T02:38:08;94362.88;;;17.37;51.37
43934;BME280;59081;42.706;23.306;2022-11-20T02:40:35;94393.06;;;17.55;51.64
43934;BME280;59081;42.706;23.306;2022-11-20T02:43:03;94394.84;;;17.58;51.39
43934;BME280;59081;42.706;23.306;2022-11-20T02:45:29;94495.59;;;18.27;51.71
43934;BME280;59081;42.706;23.306;2022-11-20T02:47:56;94448.34;;;17.85;51.19
43934;BME280;59081;42.706;23.306;2022-11-20T02:50:21;94485.66;;;18.04;51.86
43934;BME280;59081;42.706;23.306;2022-11-20T02:52:47;94450.91;;;17.83;52.38
43934;BME280;59081;42.706;23.306;2022-11-20T02:55:15;94514.59;;;18.23;52.76
43934;BME280;59081;42.706;23.306;2022-11-20T02:57:40;94481.28;;;17.86;53.77
43934;BME280;59081;42.706;23.306;2022-11-20T03:00:07;94411.94;;;17.29;54.13
43934;BME280;59081;42.706;23.306;2022-11-20T03:02:35;94439.09;;;17.51;54.20
43934;BME280;59081;42.706;23.306;2022-11-20T03:05:03;94460.63;;;17.50;55.01
43934;BME280;59081;42.706;23.306;2022-11-20T03:07:31;94498.75;;;17.76;54.69
43934;BME280;59081;42.706;23.306;2022-11-20T03:09:56;94511.66;;;17.84;54.93
43934;BME280;59081;42.706;23.306;2022-11-20T03:12:22;94461.78;;;17.27;55.73
43934;BME280;59081;42.706;23.306;2022-11-20T03:14:48;94478.25;;;17.36;56.14
43934;BME280;59081;42.706;23.306;2022-11-20T03:17:13;94433.56;;;17.02;56.04
43934;BME280;59081;42.706;23.306;2022-11-20T03:19:41;94502.91;;;17.49;56.18
43934;BME280;59081;42.706;23.306;2022-11-20T03:22:07;94428.75;;;17.03;56.19
43934;BME280;59081;42.706;23.306;2022-11-20T03:24:32;94420.25;;;16.81;57.26
43934;BME280;59081;42.706;23.306;2022-11-20T03:26:58;94472.34;;;17.17;56.99
43934;BME280;59081;42.706;23.306;2022-11-20T03:29:26;94468.53;;;17.15;56.83
43934;BME280;59081;42.706;23.306;2022-11-20T03:31:55;94505.81;;;17.28;56.98
43934;BME280;59081;42.706;23.306;2022-11-20T03:34:23;94492.13;;;17.25;56.18
43934;BME280;59081;42.706;23.306;2022-11-20T03:36:49;94499.19;;;17.20;56.24
43934;BME280;59081;42.706;23.306;2022-11-20T03:39:14;94470.31;;;17.12;56.68
43934;BME280;59081;42.706;23.306;2022-11-20T03:41:41;94500.41;;;17.14;56.80
43934;BME280;59081;42.706;23.306;2022-11-20T03:44:09;94574.66;;;17.70;55.83
43934;BME280;59081;42.706;23.306;2022-11-20T03:46:35;94514.34;;;17.19;55.91
43934;BME280;59081;42.706;23.306;2022-11-20T03:49:21;94556.09;;;17.56;56.12
43934;BME280;59081;42.706;23.306;2022-11-20T03:51:47;94530.38;;;17.30;56.73
43934;BME280;59081;42.706;23.306;2022-11-20T03:54:13;94492.31;;;17.16;56.42
43934;BME280;59081;42.706;23.306;2022-11-20T03:56:38;94466.56;;;16.84;56.78
43934;BME280;59081;42.706;23.306;2022-11-20T03:59:09;94515.13;;;17.20;56.91
43934;BME280;59081;42.706;23.306;2022-11-20T04:01:36;94535.72;;;17.39;57.11
43934;BME280;59081;42.706;23.306;2022-11-20T04:04:02;94574.59;;;17.59;57.43
43934;BME280;59081;42.706;23.306;2022-11-20T04:06:34;94506.59;;;16.92;58.20
43934;BME280;59081;42.706;23.306;2022-11-20T04:09:06;94560.50;;;17.31;57.47
43934;BME280;59081;42.706;23.306;2022-11-20T04:11:36;94545.94;;;17.11;57.77
43934;BME280;59081;42.706;23.306;2022-11-20T04:14:04;94493.13;;;16.85;56.97
43934;BME280;59081;42.706;23.306;2022-11-20T04:16:32;94497.38;;;17.12;57.31
43934;BME280;59081;42.706;23.306;2022-11-20T04:19:00;94461.03;;;16.89;57.46
43934;BME280;59081;42.706;23.306;2022-11-20T04:21:29;94409.34;;;16.40;57.13
43934;BME280;59081;42.706;23.306;2022-11-20T04:23:55;94553.41;;;17.30;56.72
43934;BME280;59081;42.706;23.306;2022-11-20T04:26:25;94444.47;;;16.69;56.53
43934;BME280;59081;42.706;23.306;2022-11-20T04:28:52;94556.28;;;17.47;56.30
43934;BME280;59081;42.706;23.306;2022-11-20T04:31:23;94440.59;;;16.61;56.45
43934;BME280;59081;42.706;23.306;2022-11-20T04:33:49;94439.25;;;16.51;57.06
43934;BME280;59081;42.706;23.306;2022-11-20T04:36:24;94496.31;;;16.72;57.04
43934;BME280;59081;42.706;23.306;2022-11-20T04:38:56;94450.91;;;16.55;57.55
43934;BME280;59081;42.706;23.306;2022-11-20T04:41:29;94472.59;;;16.77;56.06
43934;BME280;59081;42.706;23.306;2022-11-20T04:43:58;94426.88;;;16.52;55.60
43934;BME280;59081;42.706;23.306;2022-11-20T04:46:38;94470.44;;;16.97;55.33
43934;BME280;59081;42.706;23.306;2022-11-20T04:49:07;94435.63;;;16.70;55.76
43934;BME280;59081;42.706;23.306;2022-11-20T04:51:36;94507.81;;;17.22;55.52
43934;BME280;59081;42.706;23.306;2022-11-20T04:54:05;94436.94;;;16.44;57.10
43934;BME280;59081;42.706;23.306;2022-11-20T04:56:31;94480.44;;;16.78;56.09
43934;BME280;59081;42.706;23.306;2022-11-20T04:59:05;94481.06;;;16.93;56.48
43934;BME280;59081;42.706;23.306;2022-11-20T05:01:41;94534.91;;;17.27;56.97
43934;BME280;59081;42.706;23.306;2022-11-20T05:04:10;94530.38;;;17.30;56.28
43934;BME280;59081;42.706;23.306;2022-11-20T05:06:44;94402.06;;;16.48;56.19
43934;BME280;59081;42.706;23.306;2022-11-20T05:09:11;94510.78;;;17.13;56.70
43934;BME280;59081;42.706;23.306;2022-11-20T05:11:42;94402.56;;;16.47;56.52
43934;BME280;59081;42.706;23.306;2022-11-20T05:14:16;94422.13;;;16.58;56.71
43934;BME280;59081;42.706;23.306;2022-11-20T05:16:44;94419.59;;;16.60;56.62
43934;BME280;59081;42.706;23.306;2022-11-20T05:19:15;94532.91;;;17.28;56.40
43934;BME280;59081;42.706;23.306;2022-11-20T05:21:43;94403.94;;;16.31;56.82
43934;BME280;59081;42.706;23.306;2022-11-20T05:24:08;94540.75;;;17.29;56.01
43934;BME280;59081;42.706;23.306;2022-11-20T05:26:37;94485.16;;;17.03;55.85
43934;BME280;59081;42.706;23.306;2022-11-20T05:29:04;94505.44;;;17.10;56.44
43934;BME280;59081;42.706;23.306;2022-11-20T05:31:39;94421.91;;;16.61;56.24
43934;BME280;59081;42.706;23.306;2022-11-20T05:34:07;94392.41;;;16.38;56.58
43934;BME280;59081;42.706;23.306;2022-11-20T05:36:36;94468.84;;;16.85;56.04
43934;BME280;59081;42.706;23.306;2022-11-20T05:39:02;94533.38;;;17.26;56.37
43934;BME280;59081;42.706;23.306;2022-11-20T05:41:28;94426.09;;;16.51;56.46
43934;BME280;59081;42.706;23.306;2022-11-20T05:43:55;94487.41;;;16.99;56.43
43934;BME280;59081;42.706;23.306;2022-11-20T05:46:21;94411.50;;;16.25;57.48
43934;BME280;59081;42.706;23.306;2022-11-20T05:48:47;94523.22;;;16.86;59.66
43934;BME280;59081;42.706;23.306;2022-11-20T05:51:19;94469.97;;;16.67;59.61
43934;BME280;59081;42.706;23.306;2022-11-20T05:53:47;94538.38;;;16.85;61.82
43934;BME280;59081;42.706;23.306;2022-11-20T05:56:18;94532.53;;;16.78;62.81
43934;BME280;59081;42.706;23.306;2022-11-20T05:58:48;94451.72;;;16.04;64.61
43934;BME280;59081;42.706;23.306;2022-11-20T06:01:20;94533.66;;;16.40;65.75
43934;BME280;59081;42.706;23.306;2022-11-20T06:03:52;94436.72;;;15.70;65.71
43934;BME280;59081;42.706;23.306;2022-11-20T06:06:27;94547.44;;;16.28;66.04
43934;BME280;59081;42.706;23.306;2022-11-20T06:08:55;94528.44;;;16.21;65.29
43934;BME280;59081;42.706;23.306;2022-11-20T06:11:24;94562.16;;;16.34;65.97
43934;BME280;59081;42.706;23.306;2022-11-20T06:13:50;94462.78;;;15.78;65.14
43934;BME280;59081;42.706;23.306;2022-11-20T06:16:20;94444.47;;;15.86;65.11
43934;BME280;59081;42.706;23.306;2022-11-20T06:18:51;94497.78;;;16.16;64.94
43934;BME280;59081;42.706;23.306;2022-11-20T06:21:21;94480.16;;;16.19;64.69
43934;BME280;59081;42.706;23.306;2022-11-20T06:23:55;94467.56;;;15.97;64.07
43934;BME280;59081;42.706;23.306;2022-11-20T06:26:23;94457.88;;;15.87;63.85
43934;BME280;59081;42.706;23.306;2022-11-20T06:28:49;94475.34;;;16.19;63.41
43934;BME280;59081;42.706;23.306;2022-11-20T06:31:21;94540.53;;;16.70;63.17
43934;BME280;59081;42.706;23.306;2022-11-20T06:33:53;94485.50;;;16.22;63.14
43934;BME280;59081;42.706;23.306;2022-11-20T06:36:23;94566.34;;;16.70;63.61
43934;BME280;59081;42.706;23.306;2022-11-20T06:38:49;94501.38;;;16.48;63.09
43934;BME280;59081;42.706;23.306;2022-11-20T06:41:20;94473.72;;;16.33;63.51
43934;BME280;59081;42.706;23.306;2022-11-20T06:43:51;94504.25;;;16.27;63.29
43934;BME280;59081;42.706;23.306;2022-11-20T06:46:22;94458.09;;;16.10;62.43
43934;BME280;59081;42.706;23.306;2022-11-20T06:48:50;94481.19;;;16.21;62.43
43934;BME280;59081;42.706;23.306;2022-11-20T06:51:19;94575.59;;;16.88;62.76
43934;BME280;59081;42.706;23.306;2022-11-20T06:53:55;94566.56;;;16.98;62.18
43934;BME280;59081;42.706;23.306;2022-11-20T06:56:27;94535.06;;;16.81;61.38
43934;BME280;59081;42.706;23.306;2022-11-20T06:58:53;94464.06;;;16.28;61.75
43934;BME280;59081;42.706;23.306;2022-11-20T07:01:28;94556.66;;;16.92;61.29
43934;BME280;59081;42.706;23.306;2022-11-20T07:03:57;94499.03;;;16.66;61.26
43934;BME280;59081;42.706;23.306;2022-11-20T07:06:26;94570.38;;;17.01;61.63
43934;BME280;59081;42.706;23.306;2022-11-20T07:08:55;94547.28;;;16.63;61.73
43934;BME280;59081;42.706;23.306;2022-11-20T07:11:26;94575.25;;;16.80;61.09
43934;BME280;59081;42.706;23.306;2022-11-20T07:13:56;94593.88;;;16.94;62.10
43934;BME280;59081;42.706;23.306;2022-11-20T07:16:38;94592.91;;;17.03;61.63
43934;BME280;59081;42.706;23.306;2022-11-20T07:19:10;94583.09;;;16.82;61.94
43934;BME280;59081;42.706;23.306;2022-11-20T07:21:45;94604.50;;;16.96;61.89
43934;BME280;59081;42.706;23.306;2022-11-20T07:24:13;94560.38;;;16.83;61.07
43934;BME280;59081;42.706;23.306;2022-11-20T07:26:42;94582.06;;;17.05;61.14
43934;BME280;59081;42.706;23.306;2022-11-20T07:29:14;94539.00;;;16.69;62.04
43934;BME280;59081;42.706;23.306;2022-11-20T07:31:44;94506.28;;;16.32;62.03
43934;BME280;59081;42.706;23.306;2022-11-20T07:34:10;94478.31;;;16.10;61.79
43934;BME280;59081;42.706;23.306;2022-11-20T07:36:53;94472.22;;;16.12;61.24
43934;BME280;59081;42.706;23.306;2022-11-20T07:39:19;94515.72;;;16.41;61.91
43934;BME280;59081;42.706;23.306;2022-11-20T07:41:48;94500.47;;;16.30;61.74
43934;BME280;59081;42.706;23.306;2022-11-20T07:44:22;94470.63;;;16.25;60.61
43934;BME280;59081;42.706;23.306;2022-11-20T07:46:59;94516.00;;;16.43;60.25
43934;BME280;59081;42.706;23.306;2022-11-20T07:49:31;94596.28;;;17.13;60.41
43934;BME280;59081;42.706;23.306;2022-11-20T07:51:56;94586.69;;;17.14;60.36
43934;BME280;59081;42.706;23.306;2022-11-20T07:54:25;94492.53;;;16.44;60.52
43934;BME280;59081;42.706;23.306;2022-11-20T07:56:52;94561.34;;;16.80;61.53
43934;BME280;59081;42.706;23.306;2022-11-20T07:59:29;94512.06;;;16.55;61.24
43934;BME280;59081;42.706;23.306;2022-11-20T08:02:00;94585.94;;;17.19;60.86
43934;BME280;59081;42.706;23.306;2022-11-20T08:04:31;94505.19;;;16.50;60.69
43934;BME280;59081;42.706;23.306;2022-11-20T08:06:58;94518.94;;;16.33;62.01
43934;BME280;59081;42.706;23.306;2022-11-20T08:09:32;94616.53;;;16.87;61.76
43934;BME280;59081;42.706;23.306;2022-11-20T08:12:28;94539.16;;;16.60;60.71
43934;BME280;59081;42.706;23.306;2022-11-20T08:15:20;94542.06;;;16.71;60.58
43934;BME280;59081;42.706;23.306;2022-11-20T08:17:48;94599.22;;;17.03;60.26
43934;BME280;59081;42.706;23.306;2022-11-20T08:20:21;94549.78;;;16.87;59.61
43934;BME280;59081;42.706;23.306;2022-11-20T08:23:08;94482.09;;;16.39;59.93
43934;BME280;59081;42.706;23.306;2022-11-20T08:25:43;94476.66;;;16.24;60.88
43934;BME280;59081;42.706;23.306;2022-11-20T08:28:12;94483.00;;;16.24;61.12
43934;BME280;59081;42.706;23.306;2022-11-20T08:30:40;94515.41;;;16.07;62.95
43934;BME280;59081;42.706;23.306;2022-11-20T08:33:12;94613.28;;;16.89;62.63
43934;BME280;59081;42.706;23.306;2022-11-20T08:35:45;94502.31;;;16.13;62.49
43934;BME280;59081;42.706;23.306;2022-11-20T08:38:13;94573.16;;;16.69;62.57
43934;BME280;59081;42.706;23.306;2022-11-20T08:40:50;94625.50;;;16.97;63.53
43934;BME280;59081;42.706;23.306;2022-11-20T08:43:34;94524.38;;;16.48;61.45
43934;BME280;59081;42.706;23.306;2022-11-20T08:46:03;94514.44;;;16.10;63.49
43934;BME280;59081;42.706;23.306;2022-11-20T08:48:31;94617.84;;;16.46;63.45
43934;BME280;59081;42.706;23.306;2022-11-20T08:50:58;94623.28;;;16.55;63.88
43934;BME280;59081;42.706;23.306;2022-11-20T08:53:25;94604.97;;;16.43;65.15
43934;BME280;59081;42.706;23.306;2022-11-20T08:55:56;94581.78;;;15.85;70.01
43934;BME280;59081;42.706;23.306;2022-11-20T08:58:22;94537.78;;;15.57;73.20
43934;BME280;59081;42.706;23.306;2022-11-20T09:00:51;94563.88;;;15.65;75.24
43934;BME280;59081;42.706;23.306;2022-11-20T09:03:23;94534.34;;;15.48;75.69
43934;BME280;59081;42.706;23.306;2022-11-20T09:05:57;94589.22;;;15.73;75.44
43934;BME280;59081;42.706;23.306;2022-11-20T09:08:26;94654.84;;;16.31;76.40
43934;BME280;59081;42.706;23.306;2022-11-20T09:10:57;94659.72;;;16.36;75.63
43934;BME280;59081;42.706;23.306;2022-11-20T09:13:26;94630.41;;;16.15;77.21
43934;BME280;59081;42.706;23.306;2022-11-20T09:16:05;94606.91;;;15.96;79.19
43934;BME280;59081;42.706;23.306;2022-11-20T09:18:35;94662.56;;;16.22;79.62
43934;BME280;59081;42.706;23.306;2022-11-20T09:21:10;94573.09;;;15.57;79.65
43934;BME280;59081;42.706;23.306;2022-11-20T09:23:39;94661.88;;;16.07;82.78
43934;BME280;59081;42.706;23.306;2022-11-20T09:26:15;94632.50;;;15.65;79.49
43934;BME280;59081;42.706;23.306;2022-11-20T09:28:46;94571.59;;;15.06;79.76
43934;BME280;59081;42.706;23.306;2022-11-20T09:31:21;94640.69;;;15.24;81.56
43934;BME280;59081;42.706;23.306;2022-11-20T09:33:50;94590.44;;;14.87;78.70
43934;BME280;59081;42.706;23.306;2022-11-20T09:36:18;94569.31;;;14.75;79.73
43934;BME280;59081;42.706;23.306;2022-11-20T09:38:50;94490.94;;;14.31;82.32
43934;BME280;59081;42.706;23.306;2022-11-20T09:53:11;94579.50;;;16.50;83.55
43934;BME280;59081;42.706;23.306;2022-11-20T09:55:37;94477.59;;;16.15;83.28
43934;BME280;59081;42.706;23.306;2022-11-20T09:58:18;94500.63;;;16.47;81.66
43934;BME280;59081;42.706;23.306;2022-11-20T10:01:03;94616.75;;;17.10;79.96
43934;BME280;59081;42.706;23.306;2022-11-20T10:03:49;94606.59;;;17.38;78.90
43934;BME280;59081;42.706;23.306;2022-11-20T10:06:19;94506.28;;;17.21;77.46
43934;BME280;59081;42.706;23.306;2022-11-20T10:09:13;94527.81;;;17.69;73.20
43934;BME280;59081;42.706;23.306;2022-11-20T10:18:23;94476.38;;;18.46;69.08
43934;BME280;59081;42.706;23.306;2022-11-20T10:23:50;94546.16;;;18.85;68.22
43934;BME280;59081;42.706;23.306;2022-11-20T10:26:43;94516.16;;;18.47;68.25
43934;BME280;59081;42.706;23.306;2022-11-20T10:29:18;94568.44;;;18.63;67.89
43934;BME280;59081;42.706;23.306;2022-11-20T10:31:57;94592.69;;;18.34;69.07
43934;BME280;59081;42.706;23.306;2022-11-20T10:37:37;94597.13;;;17.61;72.20
43934;BME280;59081;42.706;23.306;2022-11-20T10:42:49;94507.41;;;17.03;74.60
43934;BME280;59081;42.706;23.306;2022-11-20T10:48:16;94584.19;;;17.21;76.19
43934;BME280;59081;42.706;23.306;2022-11-20T10:53:58;94569.31;;;16.93;75.56
43934;BME280;59081;42.706;23.306;2022-11-20T10:56:49;94516.16;;;16.33;76.44
43934;BME280;59081;42.706;23.306;2022-11-20T11:02:31;94587.34;;;16.51;80.07
43934;BME280;59081;42.706;23.306;2022-11-20T11:07:55;94588.78;;;14.95;81.11
43934;BME280;59081;42.706;23.306;2022-11-20T11:12:58;94677.16;;;13.21;81.36
43934;BME280;59081;42.706;23.306;2022-11-20T11:15:38;94577.19;;;12.53;83.07
43934;BME280;59081;42.706;23.306;2022-11-20T11:18:04;94620.69;;;12.95;85.09
43934;BME280;59081;42.706;23.306;2022-11-20T11:20:30;94633.97;;;13.14;83.53
43934;BME280;59081;42.706;23.306;2022-11-20T11:23:05;94636.09;;;13.29;80.88
43934;BME280;59081;42.706;23.306;2022-11-20T11:25:35;94536.50;;;12.63;81.20
43934;BME280;59081;42.706;23.306;2022-11-20T11:28:22;94502.69;;;12.26;85.05
43934;BME280;59081;42.706;23.306;2022-11-20T11:30:51;94529.16;;;12.50;84.00
43934;BME280;59081;42.706;23.306;2022-11-20T11:33:26;94611.72;;;13.09;84.16
43934;BME280;59081;42.706;23.306;2022-11-20T11:36:01;94619.47;;;12.96;85.84
43934;BME280;59081;42.706;23.306;2022-11-20T11:40:57;94601.94;;;12.99;85.16
43934;BME280;59081;42.706;23.306;2022-11-20T11:43:30;94447.84;;;12.00;83.21
43934;BME280;59081;42.706;23.306;2022-11-20T11:46:33;94631.81;;;13.18;81.71
43934;BME280;59081;42.706;23.306;2022-11-20T11:52:18;94533.09;;;12.68;82.24
43934;BME280;59081;42.706;23.306;2022-11-20T12:00:13;94465.59;;;12.60;79.81
43934;BME280;59081;42.706;23.306;2022-11-20T12:03:16;94481.41;;;12.59;79.60
43934;BME280;59081;42.706;23.306;2022-11-20T12:05:50;94580.56;;;13.41;79.73
43934;BME280;59081;42.706;23.306;2022-11-20T12:08:29;94564.91;;;13.38;77.80
43934;BME280;59081;42.706;23.306;2022-11-20T12:16:07;94543.88;;;13.55;73.39
43934;BME280;59081;42.706;23.306;2022-11-20T12:18:42;94556.72;;;13.68;72.39
43934;BME280;59081;42.706;23.306;2022-11-20T12:27:05;94591.56;;;13.98;72.24
43934;BME280;59081;42.706;23.306;2022-11-20T12:36:04;94570.69;;;13.88;73.58
43934;BME280;59081;42.706;23.306;2022-11-20T12:47:17;94530.72;;;13.89;73.02
43934;BME280;59081;42.706;23.306;2022-11-20T12:52:56;94552.38;;;13.90;79.51
43934;BME280;59081;42.706;23.306;2022-11-20T12:55:56;94481.59;;;13.12;84.26
43934;BME280;59081;42.706;23.306;2022-11-20T13:07:55;94496.94;;;12.47;91.04
43934;BME280;59081;42.706;23.306;2022-11-20T13:10:39;94545.34;;;12.76;92.61
43934;BME280;59081;42.706;23.306;2022-11-20T13:13:21;94449.63;;;12.22;91.00
43934;BME280;59081;42.706;23.306;2022-11-20T13:16:11;94514.28;;;12.48;91.09
43934;BME280;59081;42.706;23.306;2022-11-20T13:18:48;94582.06;;;12.76;91.42
43934;BME280;59081;42.706;23.306;2022-11-20T13:21:21;94521.22;;;12.34;91.72
43934;BME280;59081;42.706;23.306;2022-11-20T13:23:48;94595.38;;;12.87;92.49
43934;BME280;59081;42.706;23.306;2022-11-20T13:26:20;94438.34;;;12.01;93.22
43934;BME280;59081;42.706;23.306;2022-11-20T13:29:12;94480.25;;;12.33;93.71
43934;BME280;59081;42.706;23.306;2022-11-20T13:31:44;94469.09;;;12.27;93.93
43934;BME280;59081;42.706;23.306;2022-11-20T13:34:22;94564.16;;;12.96;93.82
43934;BME280;59081;42.706;23.306;2022-11-20T13:36:54;94448.56;;;12.19;92.85
43934;BME280;59081;42.706;23.306;2022-11-20T13:41:57;94559.28;;;12.90;91.33
43934;BME280;59081;42.706;23.306;2022-11-20T13:44:42;94558.94;;;12.98;90.90
43934;BME280;59081;42.706;23.306;2022-11-20T13:47:26;94410.84;;;12.16;90.35
43934;BME280;59081;42.706;23.306;2022-11-20T13:49:54;94449.00;;;12.27;90.55
43934;BME280;59081;42.706;23.306;2022-11-20T13:55:19;94561.66;;;13.16;89.94
43934;BME280;59081;42.706;23.306;2022-11-20T14:01:26;94498.50;;;12.39;91.33
43934;BME280;59081;42.706;23.306;2022-11-20T14:03:58;94562.25;;;12.78;92.05
43934;BME280;59081;42.706;23.306;2022-11-20T14:06:32;94586.22;;;13.05;92.77
43934;BME280;59081;42.706;23.306;2022-11-20T14:09:24;94545.81;;;12.74;93.74
43934;BME280;59081;42.706;23.306;2022-11-20T14:11:53;94599.44;;;13.01;94.27
43934;BME280;59081;42.706;23.306;2022-11-20T14:14:27;94595.13;;;13.09;93.85
43934;BME280;59081;42.706;23.306;2022-11-20T14:17:06;94556.41;;;13.09;93.59
43934;BME280;59081;42.706;23.306;2022-11-20T14:19:35;94471.06;;;12.69;95.95
43934;BME280;59081;42.706;23.306;2022-11-20T14:22:19;94521.47;;;13.30;94.55
43934;BME280;59081;42.706;23.306;2022-11-20T14:28:01;94565.31;;;13.13;87.06
43934;BME280;59081;42.706;23.306;2022-11-20T14:30:44;94542.94;;;13.02;88.26
43934;BME280;59081;42.706;23.306;2022-11-20T14:33:15;94552.13;;;13.08;88.42
43934;BME280;59081;42.706;23.306;2022-11-20T14:35:56;94499.25;;;12.49;87.06
43934;BME280;59081;42.706;23.306;2022-11-20T14:38:38;94575.38;;;12.92;86.77
43934;BME280;59081;42.706;23.306;2022-11-20T14:41:26;94558.88;;;12.74;87.33
43934;BME280;59081;42.706;23.306;2022-11-20T14:44:04;94483.84;;;12.24;87.78
43934;BME280;59081;42.706;23.306;2022-11-20T14:46:42;94558.72;;;12.77;86.11
43934;BME280;59081;42.706;23.306;2022-11-20T14:49:13;94583.81;;;12.98;86.16
43934;BME280;59081;42.706;23.306;2022-11-20T14:51:42;94478.19;;;12.09;86.30
43934;BME280;59081;42.706;23.306;2022-11-20T14:54:26;94491.38;;;12.05;85.61
43934;BME280;59081;42.706;23.306;2022-11-20T14:57:18;94557.84;;;12.62;85.41
43934;BME280;59081;42.706;23.306;2022-11-20T14:59:47;94581.75;;;12.74;85.67
43934;BME280;59081;42.706;23.306;2022-11-20T15:02:13;94533.66;;;12.39;85.75
43934;BME280;59081;42.706;23.306;2022-11-20T15:04:57;94593.75;;;12.62;85.66